Time;durP1;ratioP1;P1;durP2;ratioP2;P2;SDS_P1;SDS_P2;PMS_P1;PMS_P2;Temp;Humidity;BMP_temperature;BMP_pressure;BME280_temperature;BME280_humidity;BME280_pressure;Samples;Min_cycle;Max_cycle;Signal;HPM_P1;HPM_P2
2022/12/18 00:02:05;;;;;;;59.63;18.17;;;-5.20;99.90;;;;;;5025316;28;20615;-67
2022/12/18 00:04:52;;;;;;;61.43;17.70;;;-5.20;99.90;;;;;;5075537;27;20241;-67
2022/12/18 00:07:41;;;;;;;61.57;19.10;;;-5.20;99.90;;;;;;5079682;27;20703;-68
2022/12/18 00:10:28;;;;;;;39.60;10.90;;;-5.20;99.90;;;;;;5147996;27;20690;-66
2022/12/18 00:13:15;;;;;;;54.00;18.00;;;-5.20;99.90;;;;;;5077787;27;20678;-67
2022/12/18 00:16:03;;;;;;;59.33;17.47;;;-5.30;99.90;;;;;;5058809;27;20600;-67
2022/12/18 00:18:50;;;;;;;63.87;20.10;;;-5.30;99.90;;;;;;5077461;27;20229;-67
2022/12/18 00:21:40;;;;;;;67.60;19.63;;;-5.30;99.90;;;;;;5147806;27;20820;-67
2022/12/18 00:24:29;;;;;;;67.63;19.33;;;-5.30;99.90;;;;;;5073768;27;20229;-68
2022/12/18 00:27:16;;;;;;;41.70;10.87;;;-5.30;99.90;;;;;;5145876;27;20725;-67
2022/12/18 00:30:03;;;;;;;58.47;19.17;;;-5.30;99.90;;;;;;5076432;27;20654;-67
2022/12/18 00:32:51;;;;;;;60.00;19.13;;;-5.20;99.90;;;;;;5048797;27;20718;-67
2022/12/18 00:35:38;;;;;;;62.00;18.53;;;-5.20;99.90;;;;;;5070286;27;20598;-67
2022/12/18 00:38:25;;;;;;;60.60;19.03;;;-5.30;99.90;;;;;;5064584;27;20199;-67
2022/12/18 00:42:55;;;;;;;55.70;16.17;;;-5.30;99.90;;;;;;5035792;27;20243;-67
2022/12/18 00:44:20;;;;;;;59.13;18.90;;;-5.20;99.90;;;;;;5041558;27;20584;-67
2022/12/18 00:47:08;;;;;;;50.83;17.13;;;-5.20;99.90;;;;;;5037764;27;20189;-67
2022/12/18 00:49:55;;;;;;;58.07;17.97;;;-5.20;99.90;;;;;;5078848;27;20211;-67
2022/12/18 00:52:42;;;;;;;58.53;18.77;;;-5.10;99.90;;;;;;5124333;27;20202;-67
2022/12/18 00:55:29;;;;;;;36.57;11.33;;;-5.10;99.90;;;;;;5147522;27;20667;-67
2022/12/18 00:58:19;;;;;;;57.83;17.80;;;-5.10;99.90;;;;;;5128443;27;20283;-67
2022/12/18 01:01:06;;;;;;;50.87;15.20;;;-5.10;99.90;;;;;;5139716;27;20285;-67
2022/12/18 01:03:54;;;;;;;57.07;18.53;;;-5.10;99.90;;;;;;5153103;27;20724;-67
2022/12/18 01:06:41;;;;;;;64.70;19.13;;;-5.10;99.90;;;;;;5136391;27;20201;-67
2022/12/18 01:09:28;;;;;;;60.90;18.57;;;-5.20;99.90;;;;;;5130418;27;20278;-67
2022/12/18 01:12:15;;;;;;;70.10;19.63;;;-5.30;99.90;;;;;;5123180;27;20587;-67
2022/12/18 01:15:05;;;;;;;64.13;18.90;;;-5.30;99.90;;;;;;5121378;27;20228;-67
2022/12/18 01:17:53;;;;;;;60.47;18.83;;;-5.30;99.90;;;;;;5129491;27;20739;-67
2022/12/18 01:20:40;;;;;;;58.03;17.67;;;-5.20;99.90;;;;;;5146712;27;20291;-67
2022/12/18 01:23:27;;;;;;;60.17;17.47;;;-5.30;99.90;;;;;;5129520;27;20289;-67
2022/12/18 01:26:16;;;;;;;49.53;13.53;;;-5.20;99.90;;;;;;5112457;27;20230;-67
2022/12/18 01:29:03;;;;;;;63.30;18.37;;;-5.20;99.90;;;;;;5128744;27;20698;-67
2022/12/18 01:31:51;;;;;;;57.17;19.07;;;-5.30;99.90;;;;;;5130517;27;20729;-66
2022/12/18 01:34:39;;;;;;;55.83;18.27;;;-5.30;99.90;;;;;;5112321;27;20677;-67
2022/12/18 01:37:26;;;;;;;59.60;17.40;;;-5.30;99.90;;;;;;5111256;27;20195;-67
2022/12/18 01:40:13;;;;;;;52.47;17.10;;;-5.30;99.90;;;;;;5111923;27;20226;-67
2022/12/18 01:43:00;;;;;;;54.50;17.07;;;-5.20;99.90;;;;;;5130725;27;20213;-67
2022/12/18 01:45:47;;;;;;;61.07;18.33;;;-5.20;99.90;;;;;;5127683;27;20241;-67
2022/12/18 01:48:36;;;;;;;56.20;17.00;;;-5.20;99.90;;;;;;5116942;27;20210;-67
2022/12/18 01:51:23;;;;;;;57.30;17.87;;;-5.20;99.90;;;;;;5123090;27;21013;-68
2022/12/18 01:54:10;;;;;;;54.13;17.50;;;-5.20;99.90;;;;;;5072723;27;20285;-67
2022/12/18 01:56:58;;;;;;;54.23;17.43;;;-5.10;99.90;;;;;;5034661;27;20208;-68
2022/12/18 01:59:46;;;;;;;48.47;15.30;;;-5.20;99.90;;;;;;5066800;27;20634;-67
2022/12/18 02:02:33;;;;;;;55.63;17.77;;;-5.20;99.90;;;;;;5115189;27;20561;-67
2022/12/18 02:05:25;;;;;;;54.70;16.63;;;-5.20;99.90;;;;;;5038935;28;20241;-67
2022/12/18 02:08:16;;;;;;;50.10;16.03;;;-5.20;99.90;;;;;;5031624;28;20291;-67
2022/12/18 02:11:06;;;;;;;50.30;16.27;;;-5.20;99.90;;;;;;5046396;28;20209;-67
2022/12/18 02:13:55;;;;;;;45.57;15.23;;;-5.20;99.90;;;;;;5044724;27;20574;-69
2022/12/18 02:16:45;;;;;;;52.77;15.43;;;-5.20;99.90;;;;;;5091854;27;20227;-67
2022/12/18 02:19:47;;;;;;;47.90;16.00;;;-5.00;99.90;;;;;;5049915;27;20289;-68
2022/12/18 02:22:40;;;;;;;50.77;14.17;;;-5.10;99.90;;;;;;5119706;27;20256;-67
2022/12/18 02:25:35;;;;;;;49.67;15.20;;;-5.10;99.90;;;;;;5045820;27;20222;-68
2022/12/18 02:28:24;;;;;;;50.13;15.10;;;-5.10;99.90;;;;;;5047697;27;20302;-67
2022/12/18 02:31:13;;;;;;;47.13;14.70;;;-5.10;99.90;;;;;;5024971;27;20708;-67
2022/12/18 02:34:02;;;;;;;39.30;12.67;;;-5.00;99.90;;;;;;5055836;27;20686;-71
2022/12/18 02:36:49;;;;;;;55.17;17.50;;;-5.00;99.90;;;;;;5039702;28;20323;-68
2022/12/18 02:39:37;;;;;;;45.03;14.87;;;-5.20;99.90;;;;;;5040143;27;20204;-68
2022/12/18 02:42:24;;;;;;;53.83;17.10;;;-5.20;99.90;;;;;;5029489;28;20612;-69
2022/12/18 02:45:13;;;;;;;60.23;17.97;;;-5.20;99.90;;;;;;5047506;27;20730;-67
2022/12/18 02:48:00;;;;;;;55.83;17.13;;;-5.20;99.90;;;;;;5105789;27;20637;-68
2022/12/18 02:50:51;;;;;;;59.37;19.07;;;-5.20;99.90;;;;;;5078428;27;20595;-67
2022/12/18 02:53:41;;;;;;;66.73;19.33;;;-5.30;99.90;;;;;;5033239;27;20320;-67
2022/12/18 02:56:30;;;;;;;60.53;16.87;;;-5.30;99.90;;;;;;5087477;27;20193;-67
2022/12/18 02:59:18;;;;;;;63.67;18.20;;;-5.30;99.90;;;;;;5082874;27;20194;-67
2022/12/18 03:02:11;;;;;;;54.63;15.67;;;-5.40;99.90;;;;;;5044620;27;20209;-66
2022/12/18 03:05:01;;;;;;;53.93;14.53;;;-5.30;99.90;;;;;;5084303;27;20742;-68
2022/12/18 03:07:50;;;;;;;63.40;19.10;;;-5.30;99.90;;;;;;5089759;27;20603;-68
2022/12/18 03:10:39;;;;;;;70.50;20.50;;;-5.30;99.90;;;;;;5082681;27;20202;-67
2022/12/18 03:13:31;;;;;;;63.60;17.90;;;-5.30;99.90;;;;;;5087639;27;20287;-67
2022/12/18 03:16:20;;;;;;;76.10;22.30;;;-5.30;99.90;;;;;;5103330;27;20202;-67
2022/12/18 03:19:12;;;;;;;49.03;13.87;;;-5.40;99.90;;;;;;5058365;27;20214;-67
2022/12/18 03:21:59;;;;;;;42.67;13.17;;;-5.30;99.90;;;;;;5039323;27;20558;-67
2022/12/18 03:24:46;;;;;;;63.50;18.73;;;-5.20;99.90;;;;;;5078331;27;20259;-67
2022/12/18 03:27:34;;;;;;;58.57;19.30;;;-5.20;99.90;;;;;;5062735;27;20729;-70
2022/12/18 03:30:21;;;;;;;64.20;19.40;;;-5.10;99.90;;;;;;5037784;28;20284;-69
2022/12/18 03:33:09;;;;;;;69.83;19.77;;;-5.20;99.90;;;;;;5044435;28;20241;-67
2022/12/18 03:35:58;;;;;;;64.30;18.47;;;-5.20;99.90;;;;;;5126672;27;20204;-66
2022/12/18 03:38:45;;;;;;;67.87;18.73;;;-5.30;99.90;;;;;;5053300;28;20619;-67
2022/12/18 03:41:33;;;;;;;61.87;18.00;;;-5.30;99.90;;;;;;5102533;27;20600;-67
2022/12/18 03:44:22;;;;;;;63.33;19.60;;;-5.30;99.90;;;;;;5044186;28;20679;-66
2022/12/18 03:47:11;;;;;;;65.43;18.87;;;-5.30;99.90;;;;;;5034206;28;20584;-67
2022/12/18 03:50:00;;;;;;;63.23;18.03;;;-5.20;99.90;;;;;;5037230;28;20687;-69
2022/12/18 03:52:50;;;;;;;72.77;20.47;;;-5.20;99.90;;;;;;5028159;28;20277;-67
2022/12/18 03:55:37;;;;;;;49.93;15.00;;;-5.20;99.90;;;;;;5039642;27;20665;-67
2022/12/18 03:58:25;;;;;;;68.27;19.33;;;-5.30;99.90;;;;;;5066772;28;20659;-68
2022/12/18 04:01:14;;;;;;;60.03;19.10;;;-5.30;99.90;;;;;;5029680;28;21047;-69
2022/12/18 04:04:01;;;;;;;51.17;19.07;;;-5.30;99.90;;;;;;5028428;28;20829;-67
2022/12/18 04:06:48;;;;;;;57.97;16.47;;;-5.30;99.90;;;;;;5028585;28;20636;-67
2022/12/18 04:09:37;;;;;;;63.60;19.63;;;-5.40;99.90;;;;;;5026470;28;20609;-67
2022/12/18 04:12:25;;;;;;;68.43;21.37;;;-5.50;99.90;;;;;;5038288;27;20236;-67
2022/12/18 04:15:13;;;;;;;75.27;20.63;;;-5.40;99.90;;;;;;5031704;27;21518;-67
2022/12/18 04:18:00;;;;;;;57.63;17.20;;;-5.30;99.90;;;;;;5036137;28;20596;-67
2022/12/18 04:20:47;;;;;;;61.97;19.17;;;-5.30;99.90;;;;;;5038005;27;20669;-67
2022/12/18 04:23:34;;;;;;;703.17;43.33;;;-5.20;99.90;;;;;;5118819;27;20640;-67
2022/12/18 04:26:23;;;;;;;70.37;21.00;;;-5.20;99.90;;;;;;5041781;27;20308;-67
2022/12/18 04:29:10;;;;;;;67.60;21.57;;;-5.20;99.90;;;;;;5039990;27;20308;-67
2022/12/18 04:31:57;;;;;;;75.20;20.90;;;-5.20;99.90;;;;;;5043467;28;20213;-66
2022/12/18 04:34:45;;;;;;;73.93;20.90;;;-5.10;99.90;;;;;;5066570;27;20641;-67
2022/12/18 04:37:32;;;;;;;68.77;19.90;;;-5.20;99.90;;;;;;5079203;27;20312;-67
2022/12/18 04:40:19;;;;;;;65.53;20.47;;;-5.10;99.90;;;;;;5048567;27;20209;-67
2022/12/18 04:43:08;;;;;;;70.57;20.53;;;-5.10;99.90;;;;;;5071938;27;20198;-67
2022/12/18 04:45:55;;;;;;;72.50;19.80;;;-5.20;99.90;;;;;;5098485;27;20637;-67
2022/12/18 04:48:42;;;;;;;60.73;18.40;;;-5.30;99.90;;;;;;5045801;27;20652;-66
2022/12/18 04:51:29;;;;;;;62.63;16.30;;;-5.30;99.90;;;;;;5077820;27;20609;-69
2022/12/18 04:54:16;;;;;;;73.37;20.40;;;-5.20;99.90;;;;;;5041137;28;20327;-70
2022/12/18 04:57:04;;;;;;;73.00;19.57;;;-5.20;99.90;;;;;;5043244;28;21060;-70
2022/12/18 04:59:52;;;;;;;73.43;20.10;;;-5.30;99.90;;;;;;5037878;27;20310;-67
2022/12/18 05:02:39;;;;;;;73.00;20.23;;;-5.30;99.90;;;;;;5050179;27;20564;-67
2022/12/18 05:05:26;;;;;;;70.80;20.30;;;-5.30;99.90;;;;;;5050140;27;20225;-68
2022/12/18 05:08:14;;;;;;;78.73;21.10;;;-5.30;99.90;;;;;;5030526;28;20210;-68
2022/12/18 05:11:01;;;;;;;71.37;20.20;;;-5.30;99.90;;;;;;5039195;28;20252;-67
2022/12/18 05:13:48;;;;;;;74.67;19.80;;;-5.40;99.90;;;;;;5109716;27;20213;-67
2022/12/18 05:16:37;;;;;;;80.77;22.33;;;-5.30;99.90;;;;;;5101880;27;20681;-67
2022/12/18 05:19:24;;;;;;;64.60;19.77;;;-5.20;99.90;;;;;;5117152;27;20732;-67
2022/12/18 05:22:11;;;;;;;75.00;21.10;;;-5.30;99.90;;;;;;5047547;27;20322;-67
2022/12/18 05:24:58;;;;;;;74.63;22.57;;;-5.40;99.90;;;;;;5040840;28;20288;-67
2022/12/18 05:27:45;;;;;;;68.20;20.67;;;-5.30;99.90;;;;;;5064371;27;20280;-67
2022/12/18 05:30:33;;;;;;;82.57;20.50;;;-5.40;99.90;;;;;;5046933;27;20296;-67
2022/12/18 05:33:21;;;;;;;84.40;21.43;;;-5.40;99.90;;;;;;5038372;27;20222;-66
2022/12/18 05:36:09;;;;;;;78.53;22.50;;;-5.30;99.90;;;;;;5038067;28;20237;-69
2022/12/18 05:38:56;;;;;;;80.03;21.63;;;-5.20;99.90;;;;;;5072971;27;20281;-67
2022/12/18 05:41:43;;;;;;;36.40;11.97;;;-5.40;99.90;;;;;;5054223;27;20288;-68
2022/12/18 05:44:30;;;;;;;86.20;22.67;;;-5.30;99.90;;;;;;5081315;27;20202;-67
2022/12/18 05:47:18;;;;;;;75.10;21.30;;;-5.40;99.90;;;;;;5053498;27;20695;-68
2022/12/18 05:50:08;;;;;;;66.70;19.33;;;-5.30;99.90;;;;;;5075215;27;20276;-67
2022/12/18 05:52:55;;;;;;;83.30;21.10;;;-5.40;99.90;;;;;;5044313;27;20727;-67
2022/12/18 05:55:43;;;;;;;79.40;22.17;;;-5.40;99.90;;;;;;5068423;27;20694;-67
2022/12/18 05:58:30;;;;;;;69.00;16.40;;;-5.40;99.90;;;;;;5031401;27;20717;-68
2022/12/18 06:01:18;;;;;;;85.17;21.57;;;-5.40;99.90;;;;;;5030929;28;20696;-67
2022/12/18 06:04:05;;;;;;;77.57;20.93;;;-5.40;99.90;;;;;;5042360;28;20665;-67
2022/12/18 06:06:54;;;;;;;25.33;7.17;;;-5.40;99.90;;;;;;5047292;27;20672;-66
2022/12/18 06:09:41;;;;;;;71.33;20.40;;;-5.40;99.90;;;;;;5116448;27;20653;-66
2022/12/18 06:12:29;;;;;;;67.90;18.37;;;-5.40;99.90;;;;;;5046869;28;20303;-67
2022/12/18 06:15:16;;;;;;;79.50;22.37;;;-5.50;99.90;;;;;;5089947;27;20620;-67
2022/12/18 06:18:03;;;;;;;68.83;19.17;;;-5.40;99.90;;;;;;5047541;27;20261;-67
2022/12/18 06:20:56;;;;;;;60.60;17.90;;;-5.50;99.90;;;;;;5074526;27;20594;-67
2022/12/18 06:23:45;;;;;;;72.40;20.07;;;-5.50;99.90;;;;;;5070367;27;20620;-69
2022/12/18 06:26:32;;;;;;;87.30;22.57;;;-5.50;99.90;;;;;;5083188;27;20651;-67
2022/12/18 06:29:19;;;;;;;77.63;21.17;;;-5.50;99.90;;;;;;5034703;27;20650;-67
2022/12/18 06:32:06;;;;;;;58.90;15.50;;;-5.50;99.90;;;;;;5038943;28;20611;-67
2022/12/18 06:34:55;;;;;;;66.30;18.53;;;-5.40;99.90;;;;;;5049787;27;20708;-69
2022/12/18 06:37:42;;;;;;;46.43;14.83;;;-5.40;99.90;;;;;;5057913;27;20570;-69
2022/12/18 06:40:30;;;;;;;68.47;19.80;;;-5.50;99.90;;;;;;5088043;27;20620;-69
2022/12/18 06:43:18;;;;;;;37.23;12.23;;;-5.50;99.90;;;;;;5032083;27;20605;-67
2022/12/18 06:46:05;;;;;;;77.80;22.80;;;-5.60;99.90;;;;;;5034310;27;20692;-67
2022/12/18 06:48:52;;;;;;;71.57;18.90;;;-5.60;99.90;;;;;;5056795;27;20972;-69
2022/12/18 06:51:40;;;;;;;66.83;21.00;;;-5.50;99.90;;;;;;5038923;27;20701;-70
2022/12/18 06:54:27;;;;;;;58.47;17.57;;;-5.40;99.90;;;;;;5038121;27;20763;-66
2022/12/18 06:57:15;;;;;;;90.87;26.17;;;-5.40;99.90;;;;;;5055243;27;20738;-67
2022/12/18 07:00:03;;;;;;;81.37;20.17;;;-5.40;99.90;;;;;;5084415;27;20687;-67
2022/12/18 07:02:50;;;;;;;84.40;20.30;;;-5.40;99.90;;;;;;5079312;27;20954;-66
2022/12/18 07:05:40;;;;;;;75.70;21.60;;;-5.30;99.90;;;;;;5112179;27;20651;-67
2022/12/18 07:08:28;;;;;;;79.80;24.97;;;-5.30;99.90;;;;;;5053341;27;20206;-67
2022/12/18 07:11:15;;;;;;;79.53;24.73;;;-5.30;99.90;;;;;;5052385;27;20617;-67
2022/12/18 07:14:04;;;;;;;77.37;20.43;;;-5.30;99.90;;;;;;5038983;28;20364;-67
2022/12/18 07:16:51;;;;;;;82.63;23.17;;;-5.30;99.90;;;;;;5043211;27;20323;-68
2022/12/18 07:19:38;;;;;;;93.67;23.90;;;-5.30;99.90;;;;;;5072349;27;20202;-66
2022/12/18 07:22:26;;;;;;;91.80;25.60;;;-5.40;99.90;;;;;;5073469;27;20334;-67
2022/12/18 07:25:13;;;;;;;66.60;18.90;;;-5.40;99.90;;;;;;5043785;27;20257;-67
2022/12/18 07:28:00;;;;;;;80.00;22.73;;;-5.30;99.90;;;;;;5044226;27;20948;-67
2022/12/18 07:30:49;;;;;;;75.80;22.57;;;-5.20;99.90;;;;;;5041879;27;20213;-67
2022/12/18 07:33:36;;;;;;;88.83;24.10;;;-5.10;99.90;;;;;;5028477;28;21029;-67
2022/12/18 07:36:23;;;;;;;86.43;22.80;;;-5.20;99.90;;;;;;5073652;27;20330;-66
2022/12/18 07:39:11;;;;;;;79.63;23.67;;;-5.30;99.90;;;;;;5029945;28;20239;-67
2022/12/18 07:45:03;;;;;;;87.10;23.27;;;-5.10;99.90;;;;;;5038205;28;21044;-68
2022/12/18 07:47:52;;;;;;;87.47;24.77;;;-5.10;99.90;;;;;;5046173;27;20583;-66
2022/12/18 07:50:39;;;;;;;90.33;24.20;;;-4.90;99.90;;;;;;5049841;27;20305;-67
2022/12/18 07:53:27;;;;;;;80.90;23.13;;;-4.80;99.90;;;;;;5099395;27;20268;-68
2022/12/18 07:56:14;;;;;;;77.37;23.40;;;-4.80;99.90;;;;;;5041990;27;20201;-68
2022/12/18 07:59:01;;;;;;;82.33;21.77;;;-4.70;99.90;;;;;;5029407;27;20205;-70
2022/12/18 08:01:48;;;;;;;79.73;23.03;;;-4.60;99.90;;;;;;5047528;27;20212;-66
2022/12/18 08:04:37;;;;;;;89.43;24.90;;;-4.70;99.90;;;;;;5059370;27;20213;-67
2022/12/18 08:07:24;;;;;;;75.43;20.33;;;-4.70;99.90;;;;;;5042427;27;20300;-67
2022/12/18 08:10:11;;;;;;;80.60;22.30;;;-4.70;99.90;;;;;;5058433;27;20281;-67
2022/12/18 08:12:58;;;;;;;77.40;22.57;;;-4.70;99.90;;;;;;5055407;27;20221;-67
2022/12/18 08:15:46;;;;;;;65.37;17.73;;;-4.70;99.90;;;;;;5042583;27;20209;-69
2022/12/18 08:18:33;;;;;;;81.50;22.53;;;-4.60;99.90;;;;;;5049089;28;20701;-67
2022/12/18 08:21:23;;;;;;;74.43;17.93;;;-4.50;99.90;;;;;;5054208;27;20343;-67
2022/12/18 08:24:11;;;;;;;70.00;21.33;;;-4.30;99.90;;;;;;5048374;27;20197;-67
2022/12/18 08:26:58;;;;;;;88.27;24.83;;;-4.30;99.90;;;;;;5042992;27;20648;-70
2022/12/18 08:29:45;;;;;;;78.90;22.20;;;-4.30;99.90;;;;;;5114175;27;20213;-70
2022/12/18 08:32:33;;;;;;;84.33;23.43;;;-4.30;99.90;;;;;;5035494;27;20759;-67
2022/12/18 08:35:20;;;;;;;69.10;20.47;;;-4.40;99.90;;;;;;5031924;27;20203;-67
2022/12/18 08:38:09;;;;;;;81.60;25.53;;;-4.20;99.90;;;;;;5025716;27;20194;-67
2022/12/18 08:41:00;;;;;;;75.13;22.33;;;-4.00;99.90;;;;;;5029067;27;20197;-66
2022/12/18 08:46:51;;;;;;;75.57;24.07;;;-4.10;99.90;;;;;;5040244;28;20225;-67
2022/12/18 08:49:39;;;;;;;77.03;23.93;;;-3.80;99.90;;;;;;5046781;27;20337;-68
2022/12/18 08:52:26;;;;;;;82.53;24.97;;;-4.20;99.90;;;;;;5111151;27;20202;-67
2022/12/18 08:55:14;;;;;;;78.80;23.80;;;-3.90;99.90;;;;;;5112381;27;20194;-67
2022/12/18 08:58:02;;;;;;;88.10;27.03;;;-3.80;99.90;;;;;;5032991;27;20676;-67
2022/12/18 09:00:49;;;;;;;88.50;24.87;;;-3.60;99.90;;;;;;5110509;27;20277;-67
2022/12/18 09:03:36;;;;;;;69.53;22.23;;;-3.50;99.90;;;;;;5110344;27;20213;-67
2022/12/18 09:06:24;;;;;;;85.83;23.93;;;-3.30;99.90;;;;;;5042395;27;20253;-67
2022/12/18 09:09:11;;;;;;;79.03;24.80;;;-3.30;99.90;;;;;;5029622;28;20239;-67
2022/12/18 09:11:59;;;;;;;76.30;22.17;;;-3.10;99.90;;;;;;5040509;28;20216;-67
2022/12/18 09:14:47;;;;;;;72.97;19.30;;;-3.20;99.90;;;;;;5085168;27;20193;-67
2022/12/18 09:17:34;;;;;;;71.23;20.27;;;-3.30;99.90;;;;;;5061815;27;20664;-68
2022/12/18 09:20:21;;;;;;;64.67;22.47;;;-3.30;99.90;;;;;;5051322;27;20205;-67
2022/12/18 09:23:08;;;;;;;71.90;23.53;;;-3.40;99.90;;;;;;5050907;28;20205;-66
2022/12/18 09:25:59;;;;;;;90.37;27.03;;;-3.30;99.90;;;;;;5108457;27;20208;-67
2022/12/18 09:28:48;;;;;;;68.70;23.87;;;-3.30;99.90;;;;;;5040874;27;20797;-67
2022/12/18 09:31:37;;;;;;;75.17;24.97;;;-3.20;99.90;;;;;;5043341;28;20285;-67
2022/12/18 09:34:24;;;;;;;75.60;21.57;;;-3.20;99.90;;;;;;5032964;28;20313;-67
2022/12/18 09:37:11;;;;;;;58.70;18.20;;;-3.10;99.90;;;;;;5040753;27;20279;-67
2022/12/18 09:39:58;;;;;;;56.07;16.67;;;-3.20;99.90;;;;;;5041764;27;20660;-69
2022/12/18 09:42:48;;;;;;;64.00;20.10;;;-3.10;99.90;;;;;;5032571;27;20255;-67
2022/12/18 09:45:40;;;;;;;66.63;19.83;;;-3.10;99.90;;;;;;5045591;28;20260;-67
2022/12/18 09:48:28;;;;;;;70.60;21.77;;;-2.80;99.90;;;;;;5050055;27;20223;-67
2022/12/18 09:51:16;;;;;;;55.03;15.30;;;-2.60;99.90;;;;;;5029354;27;20541;-67
2022/12/18 09:54:05;;;;;;;59.00;16.90;;;-2.60;99.90;;;;;;5043964;27;20318;-67
2022/12/18 09:56:52;;;;;;;58.43;16.87;;;-2.70;99.90;;;;;;5047995;28;20198;-67
2022/12/18 09:59:40;;;;;;;66.73;18.00;;;-2.80;99.90;;;;;;5038239;28;20266;-67
2022/12/18 10:02:31;;;;;;;55.53;16.33;;;-2.90;99.90;;;;;;5034632;28;20205;-68
2022/12/18 10:05:21;;;;;;;55.17;16.20;;;-2.90;99.90;;;;;;5043905;27;20209;-67
2022/12/18 10:08:11;;;;;;;55.47;17.20;;;-2.90;99.90;;;;;;5040556;27;20339;-67
2022/12/18 10:11:01;;;;;;;60.47;18.83;;;-2.80;99.90;;;;;;5074572;27;20688;-67
2022/12/18 10:13:51;;;;;;;54.50;18.17;;;-3.00;99.90;;;;;;5059904;27;20708;-67
2022/12/18 10:16:42;;;;;;;63.20;17.17;;;-2.80;99.90;;;;;;5033832;28;20201;-67
2022/12/18 10:19:37;;;;;;;57.17;17.23;;;-2.60;99.90;;;;;;5039227;28;20322;-67
2022/12/18 10:22:38;;;;;;;41.33;14.17;;;-2.50;99.90;;;;;;5061131;27;20194;-67
2022/12/18 10:25:26;;;;;;;49.77;16.53;;;-2.50;99.90;;;;;;5040378;28;20676;-67
2022/12/18 10:28:14;;;;;;;53.83;17.50;;;-2.60;99.90;;;;;;5049655;27;20252;-67
2022/12/18 10:31:01;;;;;;;49.70;15.30;;;-2.50;99.90;;;;;;5032677;27;20234;-67
2022/12/18 10:33:48;;;;;;;51.47;17.40;;;-2.20;99.90;;;;;;5041825;28;20209;-67
2022/12/18 10:36:37;;;;;;;48.03;16.30;;;-2.10;99.90;;;;;;5034470;28;20216;-67
2022/12/18 10:39:26;;;;;;;54.70;16.63;;;-2.00;99.90;;;;;;5139934;27;20290;-67
2022/12/18 10:42:17;;;;;;;44.67;14.87;;;-1.90;99.90;;;;;;5039469;27;20206;-67
2022/12/18 10:45:11;;;;;;;51.60;16.80;;;-1.90;99.90;;;;;;5030259;28;20359;-67
2022/12/18 10:47:58;;;;;;;49.53;15.80;;;-2.10;99.90;;;;;;5029920;27;20222;-67
2022/12/18 10:50:48;;;;;;;48.97;15.43;;;-2.20;99.90;;;;;;5030268;28;20606;-66
2022/12/18 10:53:37;;;;;;;49.37;16.37;;;-1.90;99.90;;;;;;5043693;28;20711;-67
2022/12/18 10:56:25;;;;;;;50.67;16.70;;;-1.90;99.90;;;;;;5044269;28;20225;-67
2022/12/18 10:59:14;;;;;;;48.63;16.57;;;-1.80;99.90;;;;;;5033023;27;20202;-67
2022/12/18 11:02:01;;;;;;;51.10;16.87;;;-1.30;99.90;;;;;;5036331;28;20357;-67
2022/12/18 11:04:51;;;;;;;48.00;16.07;;;-1.00;99.90;;;;;;5034458;28;20228;-68
2022/12/18 11:07:49;;;;;;;45.40;15.20;;;-1.00;99.90;;;;;;5046786;27;20225;-67
2022/12/18 11:10:38;;;;;;;39.70;13.40;;;-1.10;99.90;;;;;;5030170;27;20232;-67
2022/12/18 11:13:27;;;;;;;49.67;15.90;;;-1.20;99.90;;;;;;5038651;28;20215;-67
2022/12/18 11:16:19;;;;;;;49.67;15.67;;;-1.20;99.90;;;;;;5036469;28;20198;-67
2022/12/18 11:19:19;;;;;;;54.80;17.00;;;-1.40;99.90;;;;;;5031582;27;20206;-67
2022/12/18 11:22:20;;;;;;;45.30;16.93;;;-1.50;99.90;;;;;;5031382;27;20292;-67
2022/12/18 11:25:18;;;;;;;50.10;17.67;;;-1.40;99.90;;;;;;5028872;28;20624;-68
2022/12/18 11:28:26;;;;;;;52.23;19.17;;;-1.20;99.90;;;;;;5060814;27;20366;-67
2022/12/18 11:31:26;;;;;;;51.10;18.10;;;-0.70;99.90;;;;;;5035585;28;20240;-68
2022/12/18 11:34:15;;;;;;;53.97;18.80;;;-0.50;99.90;;;;;;5063635;27;20206;-69
2022/12/18 11:37:02;;;;;;;50.50;18.37;;;-0.10;99.90;;;;;;5066506;27;20556;-68
2022/12/18 11:39:52;;;;;;;56.40;20.10;;;0.90;97.40;;;;;;5028210;28;20204;-70
2022/12/18 11:42:42;;;;;;;59.23;22.10;;;2.50;94.40;;;;;;5045644;27;20301;-70
2022/12/18 11:45:31;;;;;;;54.33;21.23;;;4.10;81.20;;;;;;5067313;27;20232;-70
2022/12/18 11:48:21;;;;;;;53.53;20.67;;;4.30;77.60;;;;;;5055456;27;20189;-69
2022/12/18 11:51:11;;;;;;;45.07;18.73;;;5.80;69.60;;;;;;5065255;27;20198;-69
2022/12/18 11:53:59;;;;;;;52.80;20.80;;;6.90;60.80;;;;;;5064722;27;20652;-70
2022/12/18 11:56:48;;;;;;;53.57;21.57;;;7.70;58.00;;;;;;5129331;27;20192;-70
2022/12/18 11:59:38;;;;;;;57.57;22.90;;;7.70;54.60;;;;;;5139979;27;20202;-70
2022/12/18 12:02:36;;;;;;;53.97;23.20;;;8.40;53.20;;;;;;5099276;27;20283;-71
2022/12/18 12:05:41;;;;;;;51.43;24.20;;;8.90;50.40;;;;;;5009441;28;20262;-70
2022/12/18 12:08:32;;;;;;;56.40;25.30;;;8.70;50.60;;;;;;5034746;28;20263;-69
2022/12/18 12:11:22;;;;;;;55.90;23.90;;;9.60;48.20;;;;;;5072562;27;20681;-69
2022/12/18 12:14:18;;;;;;;50.90;22.37;;;9.70;47.10;;;;;;5077358;27;20213;-69
2022/12/18 12:17:07;;;;;;;56.63;24.60;;;9.70;46.30;;;;;;5077094;27;20599;-68
2022/12/18 12:19:58;;;;;;;57.23;23.73;;;9.40;46.00;;;;;;5035329;27;20233;-68
2022/12/18 12:22:48;;;;;;;57.53;24.07;;;9.10;46.90;;;;;;5041079;28;20197;-67
2022/12/18 12:25:39;;;;;;;51.83;22.33;;;9.30;45.40;;;;;;5053036;27;20341;-67
2022/12/18 12:28:36;;;;;;;56.27;23.57;;;8.30;45.70;;;;;;5048148;28;20276;-66
2022/12/18 12:31:29;;;;;;;48.87;22.47;;;8.70;48.70;;;;;;5034681;27;20205;-66
2022/12/18 12:34:18;;;;;;;53.60;23.27;;;9.70;45.80;;;;;;5116724;27;20282;-66
2022/12/18 12:37:14;;;;;;;52.43;22.77;;;9.70;44.50;;;;;;5041022;28;20206;-66
2022/12/18 12:40:01;;;;;;;50.30;23.23;;;10.00;42.50;;;;;;5045549;28;20641;-65
2022/12/18 12:45:56;;;;;;;54.27;23.17;;;10.40;42.60;;;;;;5028866;27;20225;-65
2022/12/18 12:48:44;;;;;;;51.03;22.77;;;10.00;42.70;;;;;;5040951;27;20286;-65
2022/12/18 12:51:34;;;;;;;51.17;22.80;;;9.50;43.40;;;;;;5076777;27;20209;-65
2022/12/18 12:54:24;;;;;;;78.57;31.60;;;9.30;43.40;;;;;;5028691;28;20287;-65
2022/12/18 12:57:13;;;;;;;66.53;28.80;;;8.70;43.90;;;;;;5052486;27;20239;-66
2022/12/18 13:00:04;;;;;;;64.67;28.13;;;8.70;43.90;;;;;;5065074;27;20697;-66
2022/12/18 13:02:53;;;;;;;65.07;28.83;;;9.20;44.80;;;;;;5035586;28;20210;-66
2022/12/18 13:05:42;;;;;;;51.00;24.00;;;9.50;43.10;;;;;;5032465;27;20207;-66
2022/12/18 13:08:31;;;;;;;53.20;22.77;;;9.50;43.30;;;;;;5034613;28;20201;-66
2022/12/18 13:14:35;;;;;;;47.37;20.63;;;9.50;42.10;;;;;;5032688;28;20201;-66
2022/12/18 13:17:29;;;;;;;45.80;20.07;;;9.30;43.70;;;;;;5059830;27;20233;-66
2022/12/18 13:20:17;;;;;;;44.87;20.10;;;9.80;42.80;;;;;;5052221;27;20653;-66
2022/12/18 13:23:39;;;;;;;65.57;25.83;;;9.30;42.50;;;;;;5051483;27;20203;-66
2022/12/18 13:26:34;;;;;;;74.97;31.77;;;8.90;43.40;;;;;;5056645;27;20201;-67
2022/12/18 13:29:42;;;;;;;68.27;28.53;;;8.60;43.80;;;;;;5033636;28;20283;-66
2022/12/18 13:32:30;;;;;;;82.77;32.90;;;8.90;44.20;;;;;;5034527;27;20671;-66
2022/12/18 13:35:38;;;;;;;89.40;34.63;;;9.30;43.60;;;;;;5038789;27;20217;-66
2022/12/18 13:38:33;;;;;;;104.83;35.10;;;8.70;42.80;;;;;;5041117;28;20304;-65
2022/12/18 13:41:25;;;;;;;101.73;38.67;;;7.70;44.50;;;;;;5082497;27;20198;-66
2022/12/18 13:44:26;;;;;;;110.33;42.67;;;8.10;46.00;;;;;;5047379;27;20205;-66
2022/12/18 13:47:29;;;;;;;96.93;33.93;;;8.60;46.40;;;;;;5037289;27;20288;-65
2022/12/18 13:50:23;;;;;;;81.77;30.03;;;8.60;43.80;;;;;;5047070;27;20208;-65
2022/12/18 13:53:15;;;;;;;74.77;30.17;;;8.00;45.10;;;;;;5031941;27;20329;-66
2022/12/18 13:56:02;;;;;;;65.37;25.37;;;7.70;45.10;;;;;;5047698;27;20205;-65
2022/12/18 13:59:18;;;;;;;73.13;27.23;;;6.50;46.20;;;;;;5086791;27;20709;-65
2022/12/18 14:02:10;;;;;;;77.03;27.33;;;5.10;49.70;;;;;;5038740;27;20219;-66
2022/12/18 14:04:58;;;;;;;86.33;29.43;;;4.90;51.80;;;;;;5046493;27;20804;-65
2022/12/18 14:07:45;;;;;;;66.37;25.43;;;5.10;51.60;;;;;;5045527;27;20251;-65
2022/12/18 14:10:32;;;;;;;65.93;24.33;;;5.20;51.10;;;;;;5039635;27;20204;-65
2022/12/18 14:13:22;;;;;;;71.50;25.37;;;3.90;50.30;;;;;;5033969;27;20579;-66
2022/12/18 14:16:14;;;;;;;73.53;26.40;;;1.90;54.70;;;;;;5047060;27;20335;-66
2022/12/18 14:19:02;;;;;;;64.67;24.87;;;0.30;60.00;;;;;;5034267;27;20226;-66
2022/12/18 14:21:49;;;;;;;68.60;25.70;;;-0.60;63.30;;;;;;5041633;27;20281;-66
2022/12/18 14:24:36;;;;;;;70.80;25.00;;;-1.40;69.50;;;;;;5033128;27;20206;-65
2022/12/18 14:27:24;;;;;;;73.60;27.73;;;-2.30;77.60;;;;;;5041087;28;20214;-66
2022/12/18 14:30:32;;;;;;;117.07;37.90;;;-3.40;97.60;;;;;;5034545;27;20257;-66
2022/12/18 14:33:22;;;;;;;127.03;42.73;;;-3.80;99.90;;;;;;5033936;28;20353;-66